Time;durP1;ratioP1;P1;durP2;ratioP2;P2;SDS_P1;SDS_P2;PMS_P1;PMS_P2;Temp;Humidity;BMP_temperature;BMP_pressure;BME280_temperature;BME280_humidity;BME280_pressure;Samples;Min_cycle;Max_cycle;Signal;HPM_P1;HPM_P2
2023/08/07 00:00:31;;;;;;;19.33;18.00;;;;;;;16.62;70.98;98880.13;4977613;28;96843;-74
2023/08/07 00:02:56;;;;;;;19.38;18.08;;;;;;;16.62;70.95;98877.47;4995454;28;98568;-74
2023/08/07 00:05:22;;;;;;;18.88;17.58;;;;;;;16.62;70.83;98886.25;4995528;28;98859;-74
2023/08/07 00:07:47;;;;;;;19.48;18.05;;;;;;;16.60;71.14;98882.88;4995610;28;97500;-74
2023/08/07 00:10:14;;;;;;;19.30;17.90;;;;;;;16.57;70.61;98883.13;4995866;28;97128;-74
2023/08/07 00:12:40;;;;;;;19.15;17.90;;;;;;;16.51;71.02;98881.81;4994873;28;98970;-76
2023/08/07 00:15:06;;;;;;;19.55;18.17;;;;;;;16.54;71.13;98888.69;4995299;28;98144;-74
2023/08/07 00:17:31;;;;;;;18.50;17.30;;;;;;;16.53;71.00;98885.19;4978246;28;96759;-74
2023/08/07 00:19:57;;;;;;;19.65;18.15;;;;;;;16.60;70.62;98884.69;4995171;28;97819;-74
2023/08/07 00:22:23;;;;;;;19.13;17.83;;;;;;;16.61;70.81;98884.59;4978263;28;98832;-76
2023/08/07 00:24:48;;;;;;;19.70;18.02;;;;;;;16.61;70.64;98881.06;4994880;28;98519;-74
2023/08/07 00:27:14;;;;;;;18.60;17.08;;;;;;;16.61;70.65;98895.19;4996262;28;96654;-74
2023/08/07 00:29:40;;;;;;;19.20;17.80;;;;;;;16.56;70.86;98888.56;4995338;28;97006;-75
2023/08/07 00:32:06;;;;;;;19.67;18.27;;;;;;;16.59;70.88;98898.91;4995419;28;98624;-75
2023/08/07 00:34:31;;;;;;;18.95;17.65;;;;;;;16.58;70.88;98899.84;4994977;28;98800;-74
2023/08/07 00:36:57;;;;;;;18.52;17.23;;;;;;;16.57;70.73;98906.97;4996074;28;97026;-74
2023/08/07 00:39:22;;;;;;;19.75;18.15;;;;;;;16.55;70.85;98902.75;4977661;28;96865;-74
2023/08/07 00:41:50;;;;;;;19.52;17.80;;;;;;;16.50;70.67;98900.50;4977165;28;99011;-74
2023/08/07 00:44:16;;;;;;;19.60;18.20;;;;;;;16.51;70.66;98900.34;4994857;28;98488;-74
2023/08/07 00:46:42;;;;;;;19.13;17.83;;;;;;;16.55;70.63;98892.16;4994808;28;97136;-74
2023/08/07 00:49:09;;;;;;;19.67;18.17;;;;;;;16.52;70.82;98891.47;4977669;28;96810;-75
2023/08/07 00:51:36;;;;;;;19.67;18.27;;;;;;;16.52;70.91;98888.81;4977343;28;101016;-75
2023/08/07 00:54:03;;;;;;;18.88;17.65;;;;;;;16.52;70.56;98883.53;4975902;28;99991;-75
2023/08/07 00:56:29;;;;;;;19.38;17.85;;;;;;;16.53;70.84;98887.84;4995757;28;96836;-76
2023/08/07 00:58:54;;;;;;;19.10;17.70;;;;;;;16.55;71.11;98884.22;4975182;28;96987;-74
2023/08/07 01:01:20;;;;;;;19.52;18.13;;;;;;;16.57;71.08;98872.53;4991252;28;98864;-75
2023/08/07 01:03:46;;;;;;;19.65;18.05;;;;;;;16.56;71.03;98870.03;4976582;28;98248;-75
2023/08/07 01:06:11;;;;;;;19.13;17.73;;;;;;;16.56;70.84;98870.03;4995476;28;97119;-74
2023/08/07 01:08:37;;;;;;;19.08;17.60;;;;;;;16.55;71.03;98868.31;4988949;28;97487;-74
2023/08/07 01:11:10;;;;;;;19.95;18.25;;;;;;;16.57;70.98;98874.34;4994514;28;99073;-74
2023/08/07 01:14:07;;;;;;;19.85;18.35;;;;;;;16.56;71.11;98872.69;4976590;28;98711;-74
2023/08/07 01:16:50;;;;;;;19.77;18.23;;;;;;;16.57;70.78;98871.69;4992207;28;96878;-75
2023/08/07 01:19:24;;;;;;;19.83;18.48;;;;;;;16.53;71.20;98879.91;4977210;28;96744;-75
2023/08/07 01:21:49;;;;;;;20.85;19.02;;;;;;;16.53;71.23;98877.25;4983172;28;98680;-75
2023/08/07 01:24:15;;;;;;;20.17;18.60;;;;;;;16.53;71.42;98873.75;4994123;28;98425;-75
2023/08/07 01:26:43;;;;;;;20.75;19.05;;;;;;;16.52;71.67;98878.22;4982207;28;96736;-74
2023/08/07 01:29:29;;;;;;;20.17;18.38;;;;;;;16.48;71.85;98879.41;4993405;28;96852;-74
2023/08/07 01:31:56;;;;;;;19.45;18.15;;;;;;;16.47;71.80;98872.44;4984122;28;98871;-75
2023/08/07 01:34:24;;;;;;;19.95;17.80;;;;;;;16.46;71.78;98873.44;4994189;28;98291;-74
2023/08/07 01:36:50;;;;;;;19.65;18.23;;;;;;;16.49;71.63;98873.19;4976958;28;96763;-75
2023/08/07 01:39:17;;;;;;;20.10;18.27;;;;;;;16.49;71.80;98877.59;4993463;28;96949;-75
2023/08/07 01:41:42;;;;;;;20.35;18.80;;;;;;;16.49;71.52;98874.97;4976252;28;98863;-75
2023/08/07 01:44:08;;;;;;;20.13;18.63;;;;;;;16.47;71.36;98876.91;4993855;28;98808;-75
2023/08/07 01:46:33;;;;;;;19.33;18.02;;;;;;;16.48;71.62;98878.59;4994731;28;96959;-75
2023/08/07 01:48:59;;;;;;;18.95;17.63;;;;;;;16.48;71.40;98879.41;4976559;28;96816;-74
2023/08/07 01:51:24;;;;;;;19.40;18.00;;;;;;;16.47;71.60;98868.97;4994348;28;98715;-74
2023/08/07 01:53:50;;;;;;;19.73;18.13;;;;;;;16.47;71.79;98869.81;4993596;28;98256;-74
2023/08/07 01:56:15;;;;;;;20.80;18.95;;;;;;;16.45;72.00;98874.38;4977256;28;96637;-74
2023/08/07 01:58:41;;;;;;;19.50;18.02;;;;;;;16.45;71.73;98874.38;4994395;28;96826;-75
2023/08/07 02:01:07;;;;;;;19.58;18.13;;;;;;;16.45;72.22;98871.72;4975611;28;100690;-75
2023/08/07 02:03:32;;;;;;;20.02;18.63;;;;;;;16.45;72.21;98870.88;4958858;28;100265;-74
2023/08/07 02:05:59;;;;;;;19.73;18.15;;;;;;;16.44;72.29;98872.69;4994513;28;96856;-74
2023/08/07 02:08:24;;;;;;;19.77;18.48;;;;;;;16.46;72.22;98870.78;4994374;28;96772;-75
2023/08/07 02:10:50;;;;;;;18.90;17.60;;;;;;;16.47;72.38;98872.44;4993918;28;99155;-74
2023/08/07 02:13:15;;;;;;;20.88;19.17;;;;;;;16.47;72.24;98876.91;4989753;28;98514;-74
2023/08/07 02:15:41;;;;;;;19.60;18.30;;;;;;;16.48;72.04;98878.59;4976281;28;97213;-75
2023/08/07 02:18:07;;;;;;;20.17;18.75;;;;;;;16.46;72.27;98878.72;4994644;28;97408;-75
2023/08/07 02:20:32;;;;;;;19.77;18.27;;;;;;;16.48;72.04;98879.41;4993538;28;98880;-75
2023/08/07 02:22:58;;;;;;;18.90;17.70;;;;;;;16.45;71.93;98879.66;4993700;28;98682;-74
2023/08/07 02:25:27;;;;;;;19.30;18.00;;;;;;;16.45;72.12;98882.31;4974790;28;97338;-74
2023/08/07 02:27:52;;;;;;;20.35;18.95;;;;;;;16.43;72.14;98881.59;4994277;28;96808;-75
2023/08/07 02:30:18;;;;;;;20.23;18.65;;;;;;;16.45;72.01;98865.59;4993406;28;98699;-75
2023/08/07 02:32:44;;;;;;;19.67;18.27;;;;;;;16.45;71.94;98878.84;4993825;28;98879;-75
2023/08/07 02:35:11;;;;;;;20.13;18.42;;;;;;;16.46;72.17;98872.56;4984137;28;97254;-75
2023/08/07 02:37:36;;;;;;;20.80;19.20;;;;;;;16.46;71.87;98872.56;4994338;28;96786;-75
2023/08/07 02:40:02;;;;;;;21.00;19.08;;;;;;;16.49;72.08;98877.59;4993130;28;99328;-74
2023/08/07 02:42:27;;;;;;;19.60;18.20;;;;;;;16.48;71.67;98873.28;4972737;28;100084;-75
2023/08/07 02:44:53;;;;;;;20.10;18.52;;;;;;;16.51;71.73;98868.56;4989920;28;96883;-75
2023/08/07 02:47:18;;;;;;;19.92;18.45;;;;;;;16.50;71.83;98872.19;4976125;28;97079;-74
2023/08/07 02:49:44;;;;;;;20.05;18.75;;;;;;;16.52;72.02;98872.06;4965829;28;100567;-74
2023/08/07 02:52:10;;;;;;;20.15;18.27;;;;;;;16.52;71.93;98880.00;4993466;28;98387;-75
2023/08/07 02:54:35;;;;;;;21.38;19.30;;;;;;;16.48;72.04;98871.47;4975954;28;97744;-75
2023/08/07 02:57:01;;;;;;;20.02;18.50;;;;;;;16.53;72.25;98877.25;4991185;28;97157;-75
2023/08/07 02:59:26;;;;;;;20.35;18.92;;;;;;;16.58;71.99;98873.38;4965314;28;98509;-75
2023/08/07 03:01:52;;;;;;;20.17;18.45;;;;;;;16.57;72.03;98879.66;4974466;28;100106;-74
2023/08/07 03:04:17;;;;;;;20.75;19.02;;;;;;;16.56;72.63;98881.47;4993451;28;96805;-75
2023/08/07 03:06:43;;;;;;;19.50;18.02;;;;;;;16.53;72.76;98882.53;4974113;28;96899;-75
2023/08/07 03:09:08;;;;;;;20.65;19.15;;;;;;;16.55;72.71;98884.22;4992924;28;99002;-74
2023/08/07 03:11:34;;;;;;;20.45;18.95;;;;;;;16.58;72.73;98883.97;4996483;28;98411;-75
2023/08/07 03:13:59;;;;;;;19.95;18.55;;;;;;;16.59;72.48;98888.31;4978433;28;96779;-75
2023/08/07 03:16:25;;;;;;;19.90;18.30;;;;;;;16.61;72.45;98886.38;4997272;28;96832;-75
2023/08/07 03:18:51;;;;;;;19.92;18.52;;;;;;;16.62;72.88;98882.75;4987839;28;99100;-75
2023/08/07 03:21:17;;;;;;;20.35;19.00;;;;;;;16.64;72.81;98897.56;4978767;28;99709;-74
2023/08/07 03:23:42;;;;;;;20.52;19.02;;;;;;;16.62;72.62;98894.19;5006947;28;97802;-75
2023/08/07 03:26:10;;;;;;;21.45;19.45;;;;;;;16.65;72.81;98895.75;4979308;28;96818;-75
2023/08/07 03:28:38;;;;;;;19.98;18.58;;;;;;;16.68;72.87;98898.16;4996334;28;98058;-75
2023/08/07 03:31:04;;;;;;;19.48;18.23;;;;;;;16.68;72.99;98896.34;4976866;28;100179;-75
2023/08/07 03:33:32;;;;;;;19.83;18.27;;;;;;;16.72;73.06;98907.53;4972433;28;97215;-75
2023/08/07 03:35:58;;;;;;;20.23;18.65;;;;;;;16.70;72.68;98898.88;4981409;28;96822;-75
2023/08/07 03:38:23;;;;;;;20.67;18.92;;;;;;;16.73;72.73;98911.88;4994475;28;98570;-75
2023/08/07 03:40:51;;;;;;;19.85;18.50;;;;;;;16.72;72.89;98913.66;4974454;28;100179;-78
2023/08/07 03:43:17;;;;;;;20.02;18.63;;;;;;;16.73;73.09;98910.06;4975431;28;97454;-75
2023/08/07 03:45:43;;;;;;;18.92;17.52;;;;;;;16.76;72.97;98911.66;4978639;28;97165;-75
2023/08/07 03:48:09;;;;;;;19.70;18.40;;;;;;;16.74;73.10;98911.75;4978202;28;100515;-75
2023/08/07 03:50:37;;;;;;;20.35;18.92;;;;;;;16.78;73.12;98914.16;4977905;28;100338;-74
2023/08/07 03:53:04;;;;;;;20.60;18.80;;;;;;;16.78;73.07;98912.34;4978742;28;96986;-75
2023/08/07 03:55:30;;;;;;;20.92;19.30;;;;;;;16.81;73.18;98922.69;4996029;28;97297;-74
2023/08/07 03:57:56;;;;;;;20.65;18.95;;;;;;;16.79;73.30;98919.34;4996321;28;97424;-75
2023/08/07 04:00:23;;;;;;;20.17;18.70;;;;;;;16.82;73.52;98926.22;4963971;28;99313;-75
2023/08/07 04:02:49;;;;;;;20.60;19.25;;;;;;;16.84;73.18;98927.78;4977954;28;96916;-75
2023/08/07 04:05:15;;;;;;;22.35;20.60;;;;;;;16.87;73.28;98929.31;4978078;28;96953;-75
2023/08/07 04:07:41;;;;;;;20.08;18.63;;;;;;;16.86;73.69;98931.13;4978100;28;100693;-75
2023/08/07 04:10:07;;;;;;;20.85;19.33;;;;;;;16.85;74.13;98934.75;4991887;28;98490;-75
2023/08/07 04:12:32;;;;;;;22.33;20.30;;;;;;;16.87;74.08;98931.97;4995778;28;97290;-75
2023/08/07 04:14:59;;;;;;;22.45;20.77;;;;;;;16.90;74.40;98926.41;4977852;28;97286;-75
2023/08/07 04:17:24;;;;;;;22.08;19.98;;;;;;;16.90;74.66;98931.69;4995655;28;98655;-74
2023/08/07 04:19:50;;;;;;;21.30;19.80;;;;;;;16.85;74.98;98934.75;4983997;28;98661;-75
2023/08/07 04:22:15;;;;;;;20.92;19.48;;;;;;;16.86;74.97;98933.78;4996061;28;96667;-75
2023/08/07 04:24:41;;;;;;;21.10;19.50;;;;;;;16.88;75.42;98938.97;4995406;28;97019;-75
2023/08/07 04:27:08;;;;;;;22.48;20.70;;;;;;;16.86;75.58;98947.03;4995319;28;98666;-75
2023/08/07 04:29:33;;;;;;;21.70;19.98;;;;;;;16.87;75.38;98947.84;4994592;28;98407;-75
2023/08/07 04:31:59;;;;;;;22.30;20.35;;;;;;;16.85;75.62;98950.66;5008705;28;98167;-75
2023/08/07 04:34:24;;;;;;;20.85;19.10;;;;;;;16.88;75.43;98952.22;4992502;28;97636;-75
2023/08/07 04:36:53;;;;;;;20.60;19.20;;;;;;;16.88;75.57;98957.50;4991144;28;98885;-74
2023/08/07 04:39:20;;;;;;;22.88;20.67;;;;;;;16.87;75.54;98942.56;4977140;28;98450;-75
2023/08/07 04:41:46;;;;;;;21.75;20.20;;;;;;;16.85;75.85;98955.94;4995835;28;96886;-75
2023/08/07 04:44:11;;;;;;;21.45;19.88;;;;;;;16.85;75.91;98947.16;4991729;28;96784;-75
2023/08/07 04:46:37;;;;;;;20.77;19.48;;;;;;;16.84;75.41;98948.97;4991576;28;98983;-74
2023/08/07 04:49:03;;;;;;;21.60;19.85;;;;;;;16.84;75.30;98948.97;4991924;28;98991;-75
2023/08/07 04:51:29;;;;;;;21.40;19.90;;;;;;;16.90;75.29;98951.13;4989460;28;96805;-75
2023/08/07 04:53:56;;;;;;;22.58;20.80;;;;;;;16.91;74.98;98942.19;4994280;28;97295;-75
2023/08/07 04:56:22;;;;;;;20.88;19.23;;;;;;;16.92;75.22;98945.69;4985030;28;98817;-74
2023/08/07 04:58:47;;;;;;;21.88;20.20;;;;;;;16.96;74.92;98947.97;4993172;28;98387;-75
2023/08/07 05:01:13;;;;;;;21.98;20.38;;;;;;;16.96;74.80;98950.63;5005728;28;97059;-74
2023/08/07 05:03:38;;;;;;;21.02;19.65;;;;;;;17.00;75.26;98948.53;4996133;28;96952;-74
2023/08/07 05:06:05;;;;;;;20.70;19.20;;;;;;;17.00;74.69;98959.16;4995177;28;99130;-74
2023/08/07 05:08:31;;;;;;;21.08;19.67;;;;;;;17.03;74.55;98969.50;4991404;28;98445;-75
2023/08/07 05:10:57;;;;;;;22.15;20.40;;;;;;;17.06;74.41;98971.91;4995413;28;96712;-74
2023/08/07 05:13:22;;;;;;;23.30;21.63;;;;;;;17.10;74.68;98968.00;4990387;28;97487;-75
2023/08/07 05:15:48;;;;;;;21.10;19.70;;;;;;;17.19;74.38;98971.72;4994042;28;98784;-75
2023/08/07 05:18:14;;;;;;;21.20;19.45;;;;;;;17.25;74.54;98971.22;4995001;28;98637;-75
2023/08/07 05:20:40;;;;;;;21.27;19.75;;;;;;;17.29;74.37;98979.78;4984517;28;96725;-75
2023/08/07 05:23:05;;;;;;;21.05;19.70;;;;;;;17.33;74.25;98983.84;4993896;28;96860;-74
2023/08/07 05:25:31;;;;;;;20.67;19.27;;;;;;;17.34;74.16;98973.13;4994292;28;98879;-74
2023/08/07 05:27:56;;;;;;;20.60;19.13;;;;;;;17.32;73.93;98972.41;4993979;28;98357;-75
2023/08/07 05:30:22;;;;;;;20.23;18.92;;;;;;;17.32;73.94;98976.88;4994781;28;97196;-75
2023/08/07 05:32:47;;;;;;;21.77;20.05;;;;;;;17.31;73.29;98968.06;4994600;28;97104;-74
2023/08/07 05:35:13;;;;;;;20.90;19.48;;;;;;;17.31;73.36;98976.03;4994225;28;99049;-75
2023/08/07 05:37:38;;;;;;;21.13;19.63;;;;;;;17.31;73.36;98980.50;4994619;28;98660;-75
2023/08/07 05:40:05;;;;;;;22.23;20.50;;;;;;;17.35;73.12;98981.91;4994099;28;97095;-74
2023/08/07 05:42:31;;;;;;;21.08;19.40;;;;;;;17.42;72.84;98980.41;4988302;28;96737;-74
2023/08/07 05:44:56;;;;;;;21.20;19.75;;;;;;;17.46;72.75;98984.50;4994023;28;99451;-74
2023/08/07 05:47:22;;;;;;;21.38;19.88;;;;;;;17.46;72.36;98984.50;4994402;28;98596;-74
2023/08/07 05:49:47;;;;;;;20.40;19.08;;;;;;;17.54;71.84;98976.75;4984946;28;97333;-75
2023/08/07 05:52:14;;;;;;;20.33;18.88;;;;;;;17.55;71.59;98989.03;4991406;28;96938;-75
2023/08/07 05:54:39;;;;;;;21.00;19.42;;;;;;;17.58;71.79;98985.28;4986120;28;98697;-75
2023/08/07 05:57:05;;;;;;;20.15;18.85;;;;;;;17.56;71.46;98979.25;4994534;28;98354;-75
2023/08/07 05:59:31;;;;;;;20.00;18.65;;;;;;;17.57;71.31;98983.59;4993990;28;97222;-74
2023/08/07 06:01:56;;;;;;;20.25;18.95;;;;;;;17.53;71.63;98992.78;4992098;28;97112;-74
2023/08/07 06:04:22;;;;;;;21.08;19.38;;;;;;;17.54;71.79;98997.13;4993561;28;98710;-75
2023/08/07 06:06:48;;;;;;;20.58;19.15;;;;;;;17.54;71.93;98997.13;4991644;28;98871;-75
2023/08/07 06:09:16;;;;;;;21.15;19.65;;;;;;;17.53;71.89;99003.41;4994807;28;96622;-74
2023/08/07 06:11:42;;;;;;;20.67;19.27;;;;;;;17.48;71.78;99009.09;4990255;28;97049;-74
2023/08/07 06:14:08;;;;;;;20.45;18.88;;;;;;;17.49;71.58;99015.25;4989118;28;98659;-74
2023/08/07 06:16:33;;;;;;;21.17;19.77;;;;;;;17.45;72.10;99014.66;4992945;28;97390;-74
2023/08/07 06:18:59;;;;;;;20.60;19.10;;;;;;;17.44;72.02;99015.63;4994522;28;96800;-74
2023/08/07 06:21:24;;;;;;;19.95;18.52;;;;;;;17.43;72.09;99024.56;4994379;28;96794;-74
2023/08/07 06:23:50;;;;;;;20.67;19.30;;;;;;;17.39;72.13;99031.06;4993407;28;99011;-75
2023/08/07 06:26:16;;;;;;;20.13;18.83;;;;;;;17.39;72.46;99028.41;4980547;28;98261;-75
2023/08/07 06:28:42;;;;;;;20.65;19.25;;;;;;;17.40;72.35;99033.59;4992538;28;96702;-75
2023/08/07 06:31:10;;;;;;;19.90;18.60;;;;;;;17.41;72.20;99032.63;4991699;28;97920;-74
2023/08/07 06:33:36;;;;;;;21.08;19.63;;;;;;;17.43;72.26;99025.41;4992714;28;98814;-74
2023/08/07 06:36:02;;;;;;;21.13;19.63;;;;;;;17.52;71.79;99039.72;4993798;28;98430;-75
2023/08/07 06:38:28;;;;;;;19.83;18.52;;;;;;;17.55;71.54;99036.81;4988681;28;96970;-74
2023/08/07 06:40:54;;;;;;;19.25;18.05;;;;;;;17.61;71.31;99043.41;4994239;28;96812;-75
2023/08/07 06:43:19;;;;;;;19.95;18.65;;;;;;;17.63;70.95;99044.97;4993157;28;99103;-75
2023/08/07 06:45:54;;;;;;;19.83;18.58;;;;;;;17.70;70.82;99045.28;4993219;28;98729;-75
2023/08/07 06:48:20;;;;;;;19.67;18.48;;;;;;;17.72;70.36;99050.47;4993585;28;96767;-74
2023/08/07 06:50:49;;;;;;;19.92;18.73;;;;;;;17.78;70.08;99050.84;4993372;28;96820;-74
2023/08/07 06:53:15;;;;;;;19.85;18.65;;;;;;;17.87;69.77;99044.75;4992127;28;98977;-74
2023/08/07 06:55:43;;;;;;;19.27;18.08;;;;;;;17.86;69.43;99052.84;4992100;28;98374;-74
2023/08/07 06:58:09;;;;;;;20.45;19.05;;;;;;;18.00;69.08;99049.00;4990487;28;96754;-74
2023/08/07 07:00:36;;;;;;;20.48;19.17;;;;;;;18.05;69.18;99050.31;4996988;28;97116;-75
2023/08/07 07:03:02;;;;;;;19.77;18.48;;;;;;;18.08;68.91;99058.00;4984110;28;98569;-74
2023/08/07 07:05:27;;;;;;;20.90;19.50;;;;;;;18.07;68.57;99059.00;4995175;28;98294;-74
2023/08/07 07:07:54;;;;;;;20.33;19.13;;;;;;;18.15;68.37;99062.78;4979085;28;97112;-74
2023/08/07 07:10:19;;;;;;;19.65;18.23;;;;;;;18.43;67.79;99070.09;4993768;28;96819;-74
2023/08/07 07:12:45;;;;;;;19.77;18.58;;;;;;;18.54;67.42;99075.31;4991526;28;98800;-74
2023/08/07 07:15:11;;;;;;;21.50;19.77;;;;;;;18.58;67.24;99072.38;4990713;28;98353;-75
2023/08/07 07:17:36;;;;;;;20.42;19.13;;;;;;;18.68;66.85;99078.59;4995773;28;96927;-74
2023/08/07 07:20:02;;;;;;;19.65;18.35;;;;;;;18.68;66.23;99075.94;4997101;28;97026;-74
2023/08/07 07:22:28;;;;;;;20.20;18.98;;;;;;;18.78;66.21;99080.34;5008469;28;98939;-74
2023/08/07 07:24:54;;;;;;;21.65;19.77;;;;;;;18.77;66.51;99069.84;4996353;28;98488;-74
2023/08/07 07:27:22;;;;;;;19.60;18.40;;;;;;;18.80;66.52;99082.03;4978510;28;97490;-74
2023/08/07 07:29:48;;;;;;;19.77;18.52;;;;;;;18.94;66.08;99085.16;4994214;28;97463;-75
2023/08/07 07:32:14;;;;;;;21.23;19.58;;;;;;;19.28;64.97;99074.16;4995871;28;98821;-74
2023/08/07 07:34:39;;;;;;;20.98;19.40;;;;;;;19.90;63.88;99080.13;4996236;28;98471;-75
2023/08/07 07:37:05;;;;;;;19.90;18.67;;;;;;;20.66;61.82;99072.09;4996541;28;96644;-75
2023/08/07 07:39:30;;;;;;;20.27;18.98;;;;;;;20.91;61.13;99061.72;4996520;28;96782;-74
2023/08/07 07:41:56;;;;;;;20.75;19.38;;;;;;;21.68;59.72;99077.25;4995458;28;98836;-74
2023/08/07 07:44:22;;;;;;;21.58;19.73;;;;;;;21.46;59.43;99077.69;4995908;28;98393;-74
2023/08/07 07:46:47;;;;;;;19.98;18.63;;;;;;;21.27;60.63;99075.97;4996306;28;97152;-74
2023/08/07 07:49:12;;;;;;;20.27;18.67;;;;;;;21.18;60.33;99082.22;4996600;28;96773;-74
2023/08/07 07:51:38;;;;;;;20.13;18.60;;;;;;;21.06;60.12;99089.59;4995628;28;98810;-75
2023/08/07 07:54:04;;;;;;;20.00;18.70;;;;;;;21.59;59.02;99091.50;4995818;28;98266;-74
2023/08/07 07:56:29;;;;;;;19.35;17.92;;;;;;;22.46;57.40;99081.88;4991377;28;96809;-74
2023/08/07 07:58:55;;;;;;;20.95;19.33;;;;;;;23.31;55.81;99081.06;4991921;28;96931;-74
2023/08/07 08:01:20;;;;;;;20.58;19.27;;;;;;;25.10;51.47;99077.34;4995586;28;98785;-74
2023/08/07 08:03:46;;;;;;;20.73;19.13;;;;;;;24.67;51.32;99081.38;4994980;28;98411;-77
2023/08/07 08:06:12;;;;;;;20.20;18.33;;;;;;;24.70;50.88;99086.44;4995741;28;96782;-77
2023/08/07 08:08:37;;;;;;;20.60;19.17;;;;;;;24.52;51.23;99086.63;4995986;28;96917;-77
2023/08/07 08:11:03;;;;;;;20.98;19.50;;;;;;;25.85;48.47;99079.44;4991306;28;98751;-78
2023/08/07 08:13:28;;;;;;;20.50;18.63;;;;;;;25.17;49.08;99088.28;4992136;28;98392;-77
2023/08/07 08:15:54;;;;;;;20.52;19.02;;;;;;;25.26;49.03;99088.06;4996088;28;97282;-77
2023/08/07 08:18:20;;;;;;;20.23;18.67;;;;;;;24.83;49.62;99092.06;4990283;28;96837;-77
2023/08/07 08:20:45;;;;;;;20.10;18.60;;;;;;;26.41;47.22;99093.41;4993369;28;98730;-77
2023/08/07 08:23:11;;;;;;;20.17;18.83;;;;;;;26.67;46.01;99091.31;4995413;28;98398;-78
2023/08/07 08:25:36;;;;;;;20.50;19.00;;;;;;;27.19;44.38;99093.88;4987087;28;97061;-77
2023/08/07 08:28:02;;;;;;;20.75;19.35;;;;;;;25.75;46.87;99100.34;4996848;28;97922;-78
2023/08/07 08:30:28;;;;;;;20.65;19.17;;;;;;;25.64;47.64;99096.22;4995085;28;98760;-78
2023/08/07 08:32:54;;;;;;;19.90;18.48;;;;;;;25.21;47.89;99103.00;4996113;28;98239;-77
2023/08/07 08:35:19;;;;;;;20.92;19.35;;;;;;;24.53;49.26;99097.19;4994941;28;97290;-77
2023/08/07 08:37:45;;;;;;;20.83;19.13;;;;;;;23.87;50.96;99112.47;4995420;28;96826;-77
2023/08/07 08:40:17;;;;;;;20.20;18.55;;;;;;;23.66;51.62;99117.44;4994891;28;99138;-76
2023/08/07 08:42:43;;;;;;;21.77;19.90;;;;;;;24.22;50.79;99113.13;4973967;28;98655;-78
2023/08/07 08:45:12;;;;;;;20.67;19.25;;;;;;;25.34;48.43;99113.16;4995009;28;97143;-77
2023/08/07 08:47:39;;;;;;;21.10;18.98;;;;;;;25.35;48.53;99110.31;4980471;28;96982;-78
2023/08/07 08:50:07;;;;;;;20.45;19.15;;;;;;;25.13;49.19;99111.91;4993511;28;98958;-78
2023/08/07 08:52:33;;;;;;;21.45;20.05;;;;;;;25.15;48.81;99117.16;4991077;28;98405;-81
2023/08/07 08:54:58;;;;;;;21.48;19.55;;;;;;;24.48;49.65;99123.69;4976270;28;97216;-78
2023/08/07 08:57:25;;;;;;;21.42;19.67;;;;;;;23.68;50.85;99124.31;4995568;28;97382;-77
2023/08/07 08:59:51;;;;;;;21.75;20.02;;;;;;;23.25;51.89;99128.06;4997413;28;98770;-78
2023/08/07 09:02:17;;;;;;;23.02;20.80;;;;;;;24.60;49.21;99132.22;4983528;28;98181;-78
2023/08/07 09:04:44;;;;;;;21.52;20.13;;;;;;;26.61;44.86;99119.78;4994786;28;97210;-78
2023/08/07 09:07:10;;;;;;;21.70;20.20;;;;;;;26.91;44.39;99131.41;4987029;28;97271;-78
2023/08/07 09:09:35;;;;;;;21.52;20.02;;;;;;;28.09;42.40;99129.47;4972820;28;100155;-78
2023/08/07 09:12:03;;;;;;;20.60;19.20;;;;;;;28.51;41.94;99125.03;4994016;28;98737;-78
2023/08/07 09:14:31;;;;;;;19.48;18.13;;;;;;;28.79;41.65;99125.84;4978974;28;96925;-78
2023/08/07 09:16:59;;;;;;;20.35;18.95;;;;;;;28.62;41.74;99124.50;4994164;28;97001;-83
2023/08/07 09:19:25;;;;;;;19.80;18.48;;;;;;;28.71;42.16;99125.19;4972067;28;98710;-85
2023/08/07 09:21:51;;;;;;;19.75;18.55;;;;;;;28.57;42.04;99125.13;4988820;28;98299;-84
2023/08/07 09:24:18;;;;;;;20.52;18.88;;;;;;;28.59;41.25;99130.28;4994341;28;97035;-81
2023/08/07 09:26:44;;;;;;;19.08;17.77;;;;;;;27.38;41.91;99135.56;4994581;28;97261;-82
2023/08/07 09:29:09;;;;;;;19.20;18.00;;;;;;;28.01;42.92;99135.81;4994187;28;99273;-84
2023/08/07 09:31:37;;;;;;;20.45;18.92;;;;;;;28.03;41.82;99139.16;4991943;28;98886;-81
2023/08/07 09:34:06;;;;;;;19.75;18.25;;;;;;;27.28;41.79;99138.53;4987210;28;97310;-77
2023/08/07 09:36:32;;;;;;;18.38;17.27;;;;;;;27.60;42.11;99149.88;4991136;28;97171;-78
2023/08/07 09:39:03;;;;;;;19.35;18.13;;;;;;;27.46;42.79;99142.69;4992183;28;98829;-78
2023/08/07 09:41:29;;;;;;;19.95;18.67;;;;;;;27.29;43.74;99145.59;4990918;28;98526;-78
2023/08/07 09:43:55;;;;;;;16.55;15.55;;;;;;;27.56;43.01;99147.78;4972892;28;97302;-77
2023/08/07 09:46:21;;;;;;;18.27;17.00;;;;;;;27.44;42.38;99140.19;4982449;28;96923;-78
2023/08/07 09:48:47;;;;;;;18.15;17.02;;;;;;;27.12;43.31;99152.19;4990662;28;98963;-78
2023/08/07 09:51:13;;;;;;;19.63;18.02;;;;;;;27.07;42.73;99146.53;4989220;28;98278;-78
2023/08/07 09:53:39;;;;;;;18.70;17.30;;;;;;;26.93;43.03;99145.50;4990203;28;97007;-79
2023/08/07 09:56:04;;;;;;;19.33;17.85;;;;;;;26.83;44.11;99144.97;4992309;28;96834;-78
2023/08/07 09:58:30;;;;;;;19.02;17.52;;;;;;;26.59;43.77;99154.97;4980972;28;98789;-77
2023/08/07 10:00:59;;;;;;;18.80;17.48;;;;;;;26.77;43.67;99164.53;4992368;28;98272;-78
2023/08/07 10:03:25;;;;;;;18.58;17.27;;;;;;;26.50;43.15;99163.28;4967548;28;97299;-78
2023/08/07 10:05:51;;;;;;;18.27;17.08;;;;;;;26.38;42.16;99161.03;4972841;28;96812;-78
2023/08/07 10:08:17;;;;;;;18.85;17.45;;;;;;;26.85;42.20;99156.38;4972111;28;98567;-79
2023/08/07 10:10:43;;;;;;;19.10;17.75;;;;;;;26.80;42.11;99170.38;4972255;28;98880;-77
2023/08/07 10:13:09;;;;;;;18.80;17.60;;;;;;;26.90;41.54;99164.72;4972239;28;97427;-78
2023/08/07 10:15:34;;;;;;;18.70;17.33;;;;;;;26.85;41.96;99175.22;4971068;28;97058;-79
2023/08/07 10:18:00;;;;;;;18.73;17.38;;;;;;;26.84;42.53;99170.84;4969767;28;99248;-79
2023/08/07 10:20:27;;;;;;;20.13;18.58;;;;;;;26.69;41.58;99170.84;4976295;28;98395;-79
2023/08/07 10:22:53;;;;;;;19.23;17.92;;;;;;;26.42;41.24;99169.56;4979093;28;96766;-80
2023/08/07 10:25:21;;;;;;;19.08;17.88;;;;;;;26.30;42.39;99171.84;4977873;28;97136;-79
2023/08/07 10:27:48;;;;;;;19.17;17.60;;;;;;;25.90;43.18;99179.19;4975846;28;98904;-79
2023/08/07 10:30:15;;;;;;;19.73;18.23;;;;;;;25.56;42.18;99178.72;4975681;28;99084;-79
2023/08/07 10:32:43;;;;;;;19.55;18.17;;;;;;;25.76;43.66;99174.56;4975959;28;97462;-79
2023/08/07 10:35:08;;;;;;;18.92;17.70;;;;;;;25.77;43.67;99178.06;4977360;28;97149;-80
2023/08/07 10:37:40;;;;;;;19.77;18.38;;;;;;;25.59;43.15;99176.50;4974131;28;98665;-85
2023/08/07 10:40:09;;;;;;;18.50;17.30;;;;;;;25.71;42.98;99172.41;4975994;28;98725;-79
2023/08/07 10:42:58;;;;;;;18.83;17.63;;;;;;;25.79;43.00;99166.13;4974944;28;96612;-79
2023/08/07 10:45:24;;;;;;;19.83;18.38;;;;;;;25.65;43.09;99162.34;4964480;28;96897;-78
2023/08/07 10:48:04;;;;;;;19.70;18.40;;;;;;;25.55;44.21;99167.13;4972724;28;98513;-78
2023/08/07 10:50:35;;;;;;;19.77;18.38;;;;;;;25.44;44.21;99168.34;4972595;28;98870;-83
2023/08/07 10:53:03;;;;;;;19.35;18.08;;;;;;;25.55;45.46;99172.50;4970498;28;96811;-84
2023/08/07 10:55:47;;;;;;;19.63;18.42;;;;;;;25.63;44.42;99167.09;4970644;28;97194;-83
2023/08/07 10:58:33;;;;;;;18.67;17.48;;;;;;;25.84;43.80;99168.34;4964749;28;98676;-81
2023/08/07 11:01:19;;;;;;;19.55;18.20;;;;;;;25.66;43.99;99172.09;4971742;28;98929;-83
2023/08/07 11:04:09;;;;;;;19.58;18.38;;;;;;;25.53;43.33;99166.47;4984470;28;97297;-87
2023/08/07 11:06:35;;;;;;;19.05;17.73;;;;;;;25.59;41.98;99159.53;4977071;28;96837;-83
2023/08/07 11:09:06;;;;;;;18.95;17.75;;;;;;;25.51;42.31;99163.97;4987768;28;99408;-83
2023/08/07 11:11:40;;;;;;;19.73;18.52;;;;;;;25.41;43.57;99163.34;4993071;28;98198;-79
2023/08/07 11:14:06;;;;;;;19.30;18.10;;;;;;;25.17;42.64;99158.91;4991744;28;96690;-79